sensor_id;sensor_type;location;lat;lon;timestamp;pressure;altitude;pressure_sealevel;temperature;humidity
38466;BME280;24244;51.950;5.902;2024-03-23T00:53:31;100941.56;;;9.91;93.07
38466;BME280;24244;51.950;5.902;2024-03-23T00:55:56;100935.91;;;9.94;92.90
38466;BME280;24244;51.950;5.902;2024-03-23T00:58:22;100939.38;;;9.95;93.02
38466;BME280;24244;51.950;5.902;2024-03-23T01:00:48;100943.69;;;9.96;92.60
38466;BME280;24244;51.950;5.902;2024-03-23T01:03:14;100942.03;;;9.95;92.76
38466;BME280;24244;51.950;5.902;2024-03-23T01:05:39;100940.19;;;9.95;92.58
38466;BME280;24244;51.950;5.902;2024-03-23T01:08:06;100931.41;;;9.95;92.76
38466;BME280;24244;51.950;5.902;2024-03-23T01:10:33;100943.88;;;9.94;92.48
38466;BME280;24244;51.950;5.902;2024-03-23T01:12:58;100940.75;;;9.91;92.46
38466;BME280;24244;51.950;5.902;2024-03-23T01:15:24;100948.88;;;9.89;92.45
38466;BME280;24244;51.950;5.902;2024-03-23T01:17:50;100932.94;;;9.89;92.52
38466;BME280;24244;51.950;5.902;2024-03-23T01:20:16;100930.28;;;9.89;92.73
38466;BME280;24244;51.950;5.902;2024-03-23T01:22:42;100929.28;;;9.90;92.69
38466;BME280;24244;51.950;5.902;2024-03-23T01:25:08;100922.16;;;9.91;92.53
38466;BME280;24244;51.950;5.902;2024-03-23T01:27:35;100921.31;;;9.90;92.10
38466;BME280;24244;51.950;5.902;2024-03-23T01:30:00;100925.97;;;9.88;92.44
38466;BME280;24244;51.950;5.902;2024-03-23T01:32:26;100921.88;;;9.86;91.94
38466;BME280;24244;51.950;5.902;2024-03-23T01:34:52;100919.56;;;9.82;92.33
38466;BME280;24244;51.950;5.902;2024-03-23T01:37:18;100906.94;;;9.85;92.05
38466;BME280;24244;51.950;5.902;2024-03-23T01:39:43;100905.13;;;9.85;92.19
38466;BME280;24244;51.950;5.902;2024-03-23T01:42:09;100899.97;;;9.83;92.04
38466;BME280;24244;51.950;5.902;2024-03-23T01:44:36;100904.47;;;9.83;91.80
38466;BME280;24244;51.950;5.902;2024-03-23T01:47:03;100899.69;;;9.78;92.01
38466;BME280;24244;51.950;5.902;2024-03-23T01:49:29;100904.69;;;9.73;92.02
38466;BME280;24244;51.950;5.902;2024-03-23T01:51:55;100903.88;;;9.73;92.01
38466;BME280;24244;51.950;5.902;2024-03-23T01:54:21;100895.94;;;9.73;91.83
38466;BME280;24244;51.950;5.902;2024-03-23T01:56:48;100900.56;;;9.71;91.86
38466;BME280;24244;51.950;5.902;2024-03-23T01:59:14;100890.78;;;9.71;92.06
38466;BME280;24244;51.950;5.902;2024-03-23T02:01:42;100890.78;;;9.71;91.91
38466;BME280;24244;51.950;5.902;2024-03-23T02:04:07;100889.13;;;9.70;91.93
38466;BME280;24244;51.950;5.902;2024-03-23T02:06:35;100878.50;;;9.70;91.78
38466;BME280;24244;51.950;5.902;2024-03-23T02:09:01;100875.69;;;9.72;91.85
38466;BME280;24244;51.950;5.902;2024-03-23T02:11:27;100874.03;;;9.71;92.03
38466;BME280;24244;51.950;5.902;2024-03-23T02:13:53;100868.91;;;9.69;91.42
38466;BME280;24244;51.950;5.902;2024-03-23T02:16:18;100878.03;;;9.67;91.86
38466;BME280;24244;51.950;5.902;2024-03-23T02:18:45;100871.88;;;9.66;91.73
38466;BME280;24244;51.950;5.902;2024-03-23T02:21:11;100874.38;;;9.68;91.79
38466;BME280;24244;51.950;5.902;2024-03-23T02:23:38;100865.78;;;9.66;91.50
38466;BME280;24244;51.950;5.902;2024-03-23T02:26:04;100859.66;;;9.65;91.63
38466;BME280;24244;51.950;5.902;2024-03-23T02:28:30;100858.81;;;9.65;91.86
38466;BME280;24244;51.950;5.902;2024-03-23T02:30:55;100858.00;;;9.64;91.83
38466;BME280;24244;51.950;5.902;2024-03-23T02:33:21;100846.72;;;9.62;91.82
38466;BME280;24244;51.950;5.902;2024-03-23T02:35:47;100854.50;;;9.64;91.66
38466;BME280;24244;51.950;5.902;2024-03-23T02:38:13;100846.38;;;9.65;91.66
38466;BME280;24244;51.950;5.902;2024-03-23T02:40:40;100849.50;;;9.69;91.65
38466;BME280;24244;51.950;5.902;2024-03-23T02:43:06;100854.63;;;9.70;91.63
38466;BME280;24244;51.950;5.902;2024-03-23T02:45:31;100848.31;;;9.71;91.52
38466;BME280;24244;51.950;5.902;2024-03-23T02:47:57;100845.50;;;9.73;91.52
38466;BME280;24244;51.950;5.902;2024-03-23T02:50:23;100851.97;;;9.70;91.28
38466;BME280;24244;51.950;5.902;2024-03-23T02:52:48;100845.00;;;9.69;91.74
38466;BME280;24244;51.950;5.902;2024-03-23T02:55:14;100852.97;;;9.69;91.49
38466;BME280;24244;51.950;5.902;2024-03-23T02:57:42;100843.34;;;9.68;91.40
38466;BME280;24244;51.950;5.902;2024-03-23T03:00:08;100848.66;;;9.68;91.68
38466;BME280;24244;51.950;5.902;2024-03-23T03:02:34;100852.31;;;9.67;91.33
38466;BME280;24244;51.950;5.902;2024-03-23T03:05:00;100855.16;;;9.66;91.27
38466;BME280;24244;51.950;5.902;2024-03-23T03:07:26;100859.81;;;9.64;91.64
38466;BME280;24244;51.950;5.902;2024-03-23T03:09:52;100855.69;;;9.61;91.47
38466;BME280;24244;51.950;5.902;2024-03-23T03:12:17;100855.69;;;9.61;91.55
38466;BME280;24244;51.950;5.902;2024-03-23T03:14:44;100851.75;;;9.57;91.40
38466;BME280;24244;51.950;5.902;2024-03-23T03:17:10;100853.09;;;9.53;91.11
38466;BME280;24244;51.950;5.902;2024-03-23T03:19:36;100855.75;;;9.53;91.46
38466;BME280;24244;51.950;5.902;2024-03-23T03:22:01;100855.56;;;9.55;91.41
38466;BME280;24244;51.950;5.902;2024-03-23T03:24:27;100862.38;;;9.57;91.34
38466;BME280;24244;51.950;5.902;2024-03-23T03:26:53;100857.88;;;9.58;91.25
38466;BME280;24244;51.950;5.902;2024-03-23T03:29:19;100859.53;;;9.59;91.22
38466;BME280;24244;51.950;5.902;2024-03-23T03:31:46;100863.00;;;9.59;91.25
38466;BME280;24244;51.950;5.902;2024-03-23T03:34:12;100856.88;;;9.59;91.33
38466;BME280;24244;51.950;5.902;2024-03-23T03:36:38;100856.06;;;9.58;91.26
38466;BME280;24244;51.950;5.902;2024-03-23T03:39:03;100857.88;;;9.58;91.28
38466;BME280;24244;51.950;5.902;2024-03-23T03:41:31;100853.41;;;9.58;91.23
38466;BME280;24244;51.950;5.902;2024-03-23T03:43:56;100854.41;;;9.57;91.44
38466;BME280;24244;51.950;5.902;2024-03-23T03:46:26;100838.00;;;9.54;91.20
38466;BME280;24244;51.950;5.902;2024-03-23T03:48:54;100839.81;;;9.53;91.01
38466;BME280;24244;51.950;5.902;2024-03-23T03:51:19;100835.34;;;9.54;91.31
38466;BME280;24244;51.950;5.902;2024-03-23T03:53:45;100827.38;;;9.54;91.29
38466;BME280;24244;51.950;5.902;2024-03-23T03:56:11;100829.56;;;9.50;91.04
38466;BME280;24244;51.950;5.902;2024-03-23T03:58:37;100828.09;;;9.48;91.24
38466;BME280;24244;51.950;5.902;2024-03-23T04:01:03;100826.59;;;9.45;91.12
38466;BME280;24244;51.950;5.902;2024-03-23T04:03:28;100831.13;;;9.45;91.00
38466;BME280;24244;51.950;5.902;2024-03-23T04:05:55;100827.63;;;9.44;91.02
38466;BME280;24244;51.950;5.902;2024-03-23T04:08:21;100832.94;;;9.44;91.13
38466;BME280;24244;51.950;5.902;2024-03-23T04:10:47;100823.94;;;9.45;91.20
38466;BME280;24244;51.950;5.902;2024-03-23T04:13:13;100830.75;;;9.48;91.08
38466;BME280;24244;51.950;5.902;2024-03-23T04:15:39;100819.69;;;9.44;91.04
38466;BME280;24244;51.950;5.902;2024-03-23T04:18:05;100826.97;;;9.42;90.80
38466;BME280;24244;51.950;5.902;2024-03-23T04:20:31;100824.66;;;9.39;90.95
38466;BME280;24244;51.950;5.902;2024-03-23T04:22:59;100822.22;;;9.37;90.72
38466;BME280;24244;51.950;5.902;2024-03-23T04:25:24;100821.56;;;9.35;90.98
38466;BME280;24244;51.950;5.902;2024-03-23T04:27:50;100824.56;;;9.32;90.87
38466;BME280;24244;51.950;5.902;2024-03-23T04:30:17;100819.94;;;9.26;90.85
38466;BME280;24244;51.950;5.902;2024-03-23T04:32:43;100823.78;;;9.24;90.92
38466;BME280;24244;51.950;5.902;2024-03-23T04:35:09;100827.25;;;9.24;90.98
38466;BME280;24244;51.950;5.902;2024-03-23T04:37:38;100821.13;;;9.24;91.10
38466;BME280;24244;51.950;5.902;2024-03-23T04:40:09;100824.59;;;9.24;90.80
38466;BME280;24244;51.950;5.902;2024-03-23T04:42:37;100819.50;;;9.23;90.71
38466;BME280;24244;51.950;5.902;2024-03-23T04:45:03;100820.00;;;9.18;90.29
38466;BME280;24244;51.950;5.902;2024-03-23T04:47:29;100815.06;;;9.15;90.31
38466;BME280;24244;51.950;5.902;2024-03-23T04:49:55;100817.88;;;9.14;90.50
38466;BME280;24244;51.950;5.902;2024-03-23T04:52:20;100804.97;;;9.11;90.63
38466;BME280;24244;51.950;5.902;2024-03-23T04:54:46;100810.28;;;9.11;90.39
38466;BME280;24244;51.950;5.902;2024-03-23T04:57:13;100811.47;;;9.08;90.32
38466;BME280;24244;51.950;5.902;2024-03-23T04:59:39;100815.13;;;9.07;90.36
38466;BME280;24244;51.950;5.902;2024-03-23T05:02:04;100813.63;;;9.04;90.23
38466;BME280;24244;51.950;5.902;2024-03-23T05:04:30;100809.31;;;9.03;90.21
38466;BME280;24244;51.950;5.902;2024-03-23T05:06:57;100803.03;;;9.04;90.05
38466;BME280;24244;51.950;5.902;2024-03-23T05:09:23;100802.34;;;9.02;90.07
38466;BME280;24244;51.950;5.902;2024-03-23T05:11:49;100802.19;;;9.04;89.96
38466;BME280;24244;51.950;5.902;2024-03-23T05:14:16;100808.97;;;9.07;90.08
38466;BME280;24244;51.950;5.902;2024-03-23T05:16:41;100808.81;;;9.08;89.73
38466;BME280;24244;51.950;5.902;2024-03-23T05:19:07;100813.47;;;9.06;89.65
38466;BME280;24244;51.950;5.902;2024-03-23T05:21:33;100812.78;;;9.04;89.68
38466;BME280;24244;51.950;5.902;2024-03-23T05:23:59;100816.44;;;9.03;89.54
38466;BME280;24244;51.950;5.902;2024-03-23T05:26:24;100811.50;;;9.00;89.49
38466;BME280;24244;51.950;5.902;2024-03-23T05:28:50;100811.50;;;9.00;89.66
38466;BME280;24244;51.950;5.902;2024-03-23T05:31:24;100817.63;;;9.00;89.54
38466;BME280;24244;51.950;5.902;2024-03-23T05:33:49;100812.34;;;9.00;89.48
38466;BME280;24244;51.950;5.902;2024-03-23T05:36:15;100816.97;;;8.98;89.59
38466;BME280;24244;51.950;5.902;2024-03-23T05:38:41;100816.16;;;8.98;89.51
38466;BME280;24244;51.950;5.902;2024-03-23T05:41:06;100820.47;;;8.99;89.39
38466;BME280;24244;51.950;5.902;2024-03-23T05:43:32;100817.63;;;9.00;89.38
38466;BME280;24244;51.950;5.902;2024-03-23T05:46:00;100813.34;;;8.99;89.55
38466;BME280;24244;51.950;5.902;2024-03-23T05:48:27;100818.47;;;9.01;89.43
38466;BME280;24244;51.950;5.902;2024-03-23T05:50:53;100815.97;;;8.99;89.41
38466;BME280;24244;51.950;5.902;2024-03-23T05:53:19;100818.50;;;8.93;88.92
38466;BME280;24244;51.950;5.902;2024-03-23T05:55:48;100815.72;;;8.86;89.07
38466;BME280;24244;51.950;5.902;2024-03-23T05:58:15;100815.06;;;8.84;89.16
38466;BME280;24244;51.950;5.902;2024-03-23T06:00:41;100814.06;;;8.85;89.56
38466;BME280;24244;51.950;5.902;2024-03-23T06:03:08;100817.19;;;8.89;89.28
38466;BME280;24244;51.950;5.902;2024-03-23T06:05:35;100817.03;;;8.90;89.27
38466;BME280;24244;51.950;5.902;2024-03-23T06:08:00;100819.22;;;8.87;88.85
38466;BME280;24244;51.950;5.902;2024-03-23T06:10:26;100813.09;;;8.86;89.09
38466;BME280;24244;51.950;5.902;2024-03-23T06:12:52;100823.03;;;8.84;89.00
38466;BME280;24244;51.950;5.902;2024-03-23T06:15:18;100821.72;;;8.80;88.91
38466;BME280;24244;51.950;5.902;2024-03-23T06:17:44;100819.75;;;8.74;88.98
38466;BME280;24244;51.950;5.902;2024-03-23T06:20:10;100825.25;;;8.73;89.11
38466;BME280;24244;51.950;5.902;2024-03-23T06:22:37;100822.44;;;8.66;88.91
38466;BME280;24244;51.950;5.902;2024-03-23T06:25:03;100824.59;;;8.62;88.81
38466;BME280;24244;51.950;5.902;2024-03-23T06:27:29;100824.97;;;8.59;88.74
38466;BME280;24244;51.950;5.902;2024-03-23T06:29:55;100818.00;;;8.58;89.05
38466;BME280;24244;51.950;5.902;2024-03-23T06:32:20;100819.00;;;8.57;88.84
38466;BME280;24244;51.950;5.902;2024-03-23T06:34:46;100838.03;;;8.61;88.87
38466;BME280;24244;51.950;5.902;2024-03-23T06:37:12;100819.66;;;8.59;89.03
38466;BME280;24244;51.950;5.902;2024-03-23T06:39:39;100814.84;;;8.63;88.68
38466;BME280;24244;51.950;5.902;2024-03-23T06:42:05;100817.03;;;8.59;88.78
38466;BME280;24244;51.950;5.902;2024-03-23T06:44:31;100814.38;;;8.59;88.89
38466;BME280;24244;51.950;5.902;2024-03-23T06:46:57;100821.50;;;8.59;88.95
38466;BME280;24244;51.950;5.902;2024-03-23T06:49:23;100822.31;;;8.59;89.19
38466;BME280;24244;51.950;5.902;2024-03-23T06:51:49;100815.66;;;8.63;89.31
38466;BME280;24244;51.950;5.902;2024-03-23T06:54:16;100811.84;;;8.66;89.19
38466;BME280;24244;51.950;5.902;2024-03-23T06:56:43;100811.66;;;8.68;88.87
38466;BME280;24244;51.950;5.902;2024-03-23T06:59:09;100818.97;;;8.66;89.11
38466;BME280;24244;51.950;5.902;2024-03-23T07:01:35;100821.63;;;8.66;88.93
38466;BME280;24244;51.950;5.902;2024-03-23T07:04:01;100822.44;;;8.66;89.21
38466;BME280;24244;51.950;5.902;2024-03-23T07:06:27;100819.59;;;8.68;89.16
38466;BME280;24244;51.950;5.902;2024-03-23T07:08:52;100821.09;;;8.70;89.06
38466;BME280;24244;51.950;5.902;2024-03-23T07:11:19;100820.41;;;8.76;89.36
38466;BME280;24244;51.950;5.902;2024-03-23T07:13:49;100822.06;;;8.77;89.11
38466;BME280;24244;51.950;5.902;2024-03-23T07:16:15;100822.34;;;8.82;89.16
38466;BME280;24244;51.950;5.902;2024-03-23T07:18:41;100826.50;;;8.85;89.31
38466;BME280;24244;51.950;5.902;2024-03-23T07:21:07;100828.50;;;8.83;89.20
38466;BME280;24244;51.950;5.902;2024-03-23T07:23:33;100818.72;;;8.83;89.42
38466;BME280;24244;51.950;5.902;2024-03-23T07:25:59;100820.19;;;8.86;89.10
38466;BME280;24244;51.950;5.902;2024-03-23T07:28:25;100821.03;;;8.86;89.17
38466;BME280;24244;51.950;5.902;2024-03-23T07:31:03;100822.50;;;8.89;89.07
38466;BME280;24244;51.950;5.902;2024-03-23T07:33:29;100816.72;;;8.85;89.12
38466;BME280;24244;51.950;5.902;2024-03-23T07:35:55;100828.00;;;8.87;89.13
38466;BME280;24244;51.950;5.902;2024-03-23T07:38:21;100821.66;;;8.88;89.02
38466;BME280;24244;51.950;5.902;2024-03-23T07:40:47;100822.31;;;8.90;88.97
38466;BME280;24244;51.950;5.902;2024-03-23T07:43:15;100814.03;;;8.93;88.85
38466;BME280;24244;51.950;5.902;2024-03-23T07:45:41;100827.28;;;8.93;88.76
38466;BME280;24244;51.950;5.902;2024-03-23T07:48:08;100809.38;;;8.95;88.62
38466;BME280;24244;51.950;5.902;2024-03-23T07:50:34;100813.53;;;8.90;88.53
38466;BME280;24244;51.950;5.902;2024-03-23T07:53:00;100800.44;;;8.88;88.39
38466;BME280;24244;51.950;5.902;2024-03-23T07:55:25;100812.41;;;8.84;88.59
38466;BME280;24244;51.950;5.902;2024-03-23T07:57:51;100813.25;;;8.85;88.44
38466;BME280;24244;51.950;5.902;2024-03-23T08:00:17;100810.75;;;8.83;88.62
38466;BME280;24244;51.950;5.902;2024-03-23T08:02:43;100814.25;;;8.84;88.42
38466;BME280;24244;51.950;5.902;2024-03-23T08:05:10;100812.94;;;8.80;88.19
38466;BME280;24244;51.950;5.902;2024-03-23T08:07:36;100813.41;;;8.83;88.33
38466;BME280;24244;51.950;5.902;2024-03-23T08:10:02;100806.78;;;8.87;88.34
38466;BME280;24244;51.950;5.902;2024-03-23T08:12:29;100808.25;;;8.90;88.46
38466;BME280;24244;51.950;5.902;2024-03-23T08:14:54;100807.75;;;8.94;88.72
38466;BME280;24244;51.950;5.902;2024-03-23T08:17:20;100815.50;;;8.96;88.19
38466;BME280;24244;51.950;5.902;2024-03-23T08:19:46;100812.22;;;8.94;88.03
38466;BME280;24244;51.950;5.902;2024-03-23T08:22:13;100803.44;;;8.93;87.70
38466;BME280;24244;51.950;5.902;2024-03-23T08:24:38;100806.72;;;8.95;87.61
38466;BME280;24244;51.950;5.902;2024-03-23T08:27:05;100808.38;;;8.96;87.52
38466;BME280;24244;51.950;5.902;2024-03-23T08:29:30;100813.34;;;8.99;87.29
38466;BME280;24244;51.950;5.902;2024-03-23T08:31:57;100804.03;;;9.03;87.41
38466;BME280;24244;51.950;5.902;2024-03-23T08:34:22;100810.47;;;9.09;87.37
38466;BME280;24244;51.950;5.902;2024-03-23T08:36:48;100807.44;;;9.12;87.04
38466;BME280;24244;51.950;5.902;2024-03-23T08:39:16;100805.09;;;9.17;86.91
38466;BME280;24244;51.950;5.902;2024-03-23T08:41:42;100811.41;;;9.16;86.30
38466;BME280;24244;51.950;5.902;2024-03-23T08:44:11;100811.06;;;9.19;86.03
38466;BME280;24244;51.950;5.902;2024-03-23T08:46:37;100805.56;;;9.21;86.02
38466;BME280;24244;51.950;5.902;2024-03-23T08:49:03;100804.75;;;9.20;85.24
38466;BME280;24244;51.950;5.902;2024-03-23T08:51:28;100803.75;;;9.21;85.23
38466;BME280;24244;51.950;5.902;2024-03-23T08:53:54;100789.94;;;9.26;85.54
38466;BME280;24244;51.950;5.902;2024-03-23T08:56:21;100793.72;;;9.31;85.10
38466;BME280;24244;51.950;5.902;2024-03-23T08:58:47;100792.53;;;9.34;84.63
38466;BME280;24244;51.950;5.902;2024-03-23T09:01:13;100802.00;;;9.36;83.84
38466;BME280;24244;51.950;5.902;2024-03-23T09:03:39;100804.28;;;9.39;83.69
38466;BME280;24244;51.950;5.902;2024-03-23T09:06:06;100793.44;;;9.49;84.00
38466;BME280;24244;51.950;5.902;2024-03-23T09:08:32;100796.19;;;9.56;84.54
38466;BME280;24244;51.950;5.902;2024-03-23T09:11:03;100802.78;;;9.60;83.79
38466;BME280;24244;51.950;5.902;2024-03-23T09:13:30;100800.78;;;9.62;83.53
38466;BME280;24244;51.950;5.902;2024-03-23T09:15:56;100813.50;;;9.66;84.01
38466;BME280;24244;51.950;5.902;2024-03-23T09:18:22;100805.19;;;9.69;83.90
38466;BME280;24244;51.950;5.902;2024-03-23T09:20:48;100801.16;;;9.73;84.47
38466;BME280;24244;51.950;5.902;2024-03-23T09:23:13;100802.81;;;9.74;84.04
38466;BME280;24244;51.950;5.902;2024-03-23T09:25:39;100793.75;;;9.69;83.14
38466;BME280;24244;51.950;5.902;2024-03-23T09:28:06;100790.34;;;9.60;83.03
38466;BME280;24244;51.950;5.902;2024-03-23T09:30:33;100797.69;;;9.58;83.55
38466;BME280;24244;51.950;5.902;2024-03-23T09:32:59;100791.72;;;9.56;83.70
38466;BME280;24244;51.950;5.902;2024-03-23T09:35:25;100784.94;;;9.54;83.86
38466;BME280;24244;51.950;5.902;2024-03-23T09:37:50;100791.53;;;9.58;84.38
38466;BME280;24244;51.950;5.902;2024-03-23T09:40:16;100790.53;;;9.59;84.27
38466;BME280;24244;51.950;5.902;2024-03-23T09:42:42;100788.88;;;9.58;83.76
38466;BME280;24244;51.950;5.902;2024-03-23T09:45:17;100774.13;;;9.55;83.00
38466;BME280;24244;51.950;5.902;2024-03-23T09:47:44;100781.44;;;9.53;82.54
38466;BME280;24244;51.950;5.902;2024-03-23T09:50:12;100789.59;;;9.52;82.84
38466;BME280;24244;51.950;5.902;2024-03-23T09:52:38;100788.78;;;9.51;82.89
38466;BME280;24244;51.950;5.902;2024-03-23T09:55:04;100786.75;;;9.53;83.42
38466;BME280;24244;51.950;5.902;2024-03-23T09:57:30;100777.97;;;9.53;82.94
38466;BME280;24244;51.950;5.902;2024-03-23T09:59:55;100775.13;;;9.54;82.57
38466;BME280;24244;51.950;5.902;2024-03-23T10:02:24;100771.97;;;9.59;82.43
38466;BME280;24244;51.950;5.902;2024-03-23T10:04:51;100765.44;;;9.61;82.59
38466;BME280;24244;51.950;5.902;2024-03-23T10:07:19;100764.56;;;9.69;82.37
38466;BME280;24244;51.950;5.902;2024-03-23T10:09:45;100764.66;;;9.75;81.89
38466;BME280;24244;51.950;5.902;2024-03-23T10:12:21;100761.47;;;9.80;81.54
38466;BME280;24244;51.950;5.902;2024-03-23T10:14:47;100767.06;;;9.85;81.30
38466;BME280;24244;51.950;5.902;2024-03-23T10:17:15;100753.41;;;9.88;81.18
38466;BME280;24244;51.950;5.902;2024-03-23T10:19:43;100768.34;;;9.89;81.08
38466;BME280;24244;51.950;5.902;2024-03-23T10:22:14;100774.66;;;9.88;80.49
38466;BME280;24244;51.950;5.902;2024-03-23T10:24:40;100774.19;;;9.85;79.83
38466;BME280;24244;51.950;5.902;2024-03-23T10:27:06;100780.22;;;9.78;78.66
38466;BME280;24244;51.950;5.902;2024-03-23T10:29:31;100774.09;;;9.78;78.92
38466;BME280;24244;51.950;5.902;2024-03-23T10:32:07;100780.84;;;9.80;78.80
38466;BME280;24244;51.950;5.902;2024-03-23T10:34:33;100788.03;;;9.80;77.74
38466;BME280;24244;51.950;5.902;2024-03-23T10:37:01;100794.50;;;9.77;78.12
38466;BME280;24244;51.950;5.902;2024-03-23T10:39:32;100778.47;;;9.71;76.98
38466;BME280;24244;51.950;5.902;2024-03-23T10:42:00;100786.97;;;9.66;77.25
38466;BME280;24244;51.950;5.902;2024-03-23T10:44:28;100767.38;;;9.67;77.80
38466;BME280;24244;51.950;5.902;2024-03-23T10:46:55;100768.38;;;9.66;77.18
38466;BME280;24244;51.950;5.902;2024-03-23T10:49:26;100763.72;;;9.68;76.89
38466;BME280;24244;51.950;5.902;2024-03-23T10:51:52;100763.22;;;9.73;76.94
38466;BME280;24244;51.950;5.902;2024-03-23T10:54:18;100763.31;;;9.79;77.25
38466;BME280;24244;51.950;5.902;2024-03-23T10:56:47;100759.44;;;9.82;76.65
38466;BME280;24244;51.950;5.902;2024-03-23T10:59:16;100751.66;;;9.80;76.04
38466;BME280;24244;51.950;5.902;2024-03-23T11:01:55;100737.69;;;9.87;76.67
38466;BME280;24244;51.950;5.902;2024-03-23T11:04:32;100744.75;;;9.94;76.66
38466;BME280;24244;51.950;5.902;2024-03-23T11:06:57;100750.16;;;10.01;76.68
38466;BME280;24244;51.950;5.902;2024-03-23T11:09:40;100759.84;;;10.08;76.04
38466;BME280;24244;51.950;5.902;2024-03-23T11:12:25;100760.66;;;10.09;75.89
38466;BME280;24244;51.950;5.902;2024-03-23T11:14:53;100758.19;;;10.07;75.10
38466;BME280;24244;51.950;5.902;2024-03-23T11:17:20;100762.22;;;10.03;74.82
38466;BME280;24244;51.950;5.902;2024-03-23T11:19:53;100750.16;;;10.01;74.83
38466;BME280;24244;51.950;5.902;2024-03-23T11:22:40;100754.31;;;9.95;74.29
38466;BME280;24244;51.950;5.902;2024-03-23T11:25:17;100753.50;;;9.95;74.07
38466;BME280;24244;51.950;5.902;2024-03-23T11:27:45;100760.13;;;9.99;74.45
38466;BME280;24244;51.950;5.902;2024-03-23T11:30:12;100749.94;;;10.02;74.58
38466;BME280;24244;51.950;5.902;2024-03-23T11:32:38;100743.44;;;10.05;73.72
38466;BME280;24244;51.950;5.902;2024-03-23T11:35:05;100745.94;;;10.06;74.23
38466;BME280;24244;51.950;5.902;2024-03-23T11:37:31;100736.13;;;10.07;73.88
38466;BME280;24244;51.950;5.902;2024-03-23T11:39:57;100750.03;;;10.09;73.93
38466;BME280;24244;51.950;5.902;2024-03-23T11:42:22;100750.84;;;10.09;73.86
38466;BME280;24244;51.950;5.902;2024-03-23T11:44:49;100744.72;;;10.09;74.03
38466;BME280;24244;51.950;5.902;2024-03-23T11:47:15;100749.03;;;10.10;74.17
38466;BME280;24244;51.950;5.902;2024-03-23T11:49:41;100744.72;;;10.09;74.32
38466;BME280;24244;51.950;5.902;2024-03-23T11:52:07;100746.75;;;10.07;74.45
38466;BME280;24244;51.950;5.902;2024-03-23T11:54:35;100752.25;;;10.05;74.69
38466;BME280;24244;51.950;5.902;2024-03-23T11:57:02;100752.06;;;10.07;74.67
38466;BME280;24244;51.950;5.902;2024-03-23T11:59:34;100745.44;;;10.03;72.80
38466;BME280;24244;51.950;5.902;2024-03-23T12:02:06;100747.66;;;9.99;72.56
38466;BME280;24244;51.950;5.902;2024-03-23T12:04:32;100749.66;;;9.97;73.13
38466;BME280;24244;51.950;5.902;2024-03-23T12:07:11;100751.50;;;9.97;72.94
38466;BME280;24244;51.950;5.902;2024-03-23T12:09:38;100755.16;;;9.96;72.93
38466;BME280;24244;51.950;5.902;2024-03-23T12:12:08;100754.31;;;9.95;73.29
38466;BME280;24244;51.950;5.902;2024-03-23T12:14:34;100747.56;;;9.93;72.40
38466;BME280;24244;51.950;5.902;2024-03-23T12:17:09;100755.44;;;9.86;71.76
38466;BME280;24244;51.950;5.902;2024-03-23T12:19:35;100739.41;;;9.79;72.23
38466;BME280;24244;51.950;5.902;2024-03-23T12:22:00;100747.56;;;9.78;72.04
38466;BME280;24244;51.950;5.902;2024-03-23T12:24:26;100732.81;;;9.75;72.18
38466;BME280;24244;51.950;5.902;2024-03-23T12:26:52;100740.75;;;9.75;72.04
38466;BME280;24244;51.950;5.902;2024-03-23T12:29:18;100735.63;;;9.74;72.22
38466;BME280;24244;51.950;5.902;2024-03-23T12:31:44;100733.28;;;9.79;72.96
38466;BME280;24244;51.950;5.902;2024-03-23T12:34:11;100720.28;;;9.84;72.92
38466;BME280;24244;51.950;5.902;2024-03-23T12:36:37;100719.72;;;9.89;73.19
38466;BME280;24244;51.950;5.902;2024-03-23T12:39:02;100722.03;;;9.92;72.93
38466;BME280;24244;51.950;5.902;2024-03-23T12:41:28;100718.81;;;9.96;73.84
38466;BME280;24244;51.950;5.902;2024-03-23T12:43:54;100713.97;;;10.00;73.88
38466;BME280;24244;51.950;5.902;2024-03-23T12:46:19;100709.56;;;10.07;73.94
38466;BME280;24244;51.950;5.902;2024-03-23T12:48:45;100701.69;;;10.13;72.75
38466;BME280;24244;51.950;5.902;2024-03-23T12:51:12;100707.94;;;10.20;72.90
38466;BME280;24244;51.950;5.902;2024-03-23T12:53:38;100706.00;;;10.29;72.64
38466;BME280;24244;51.950;5.902;2024-03-23T12:56:04;100703.03;;;10.39;72.60
38466;BME280;24244;51.950;5.902;2024-03-23T12:58:30;100696.25;;;10.51;72.33
38466;BME280;24244;51.950;5.902;2024-03-23T13:00:57;100690.81;;;10.59;71.50
38466;BME280;24244;51.950;5.902;2024-03-23T13:03:23;100699.69;;;10.66;71.22
38466;BME280;24244;51.950;5.902;2024-03-23T13:05:51;100708.13;;;10.70;69.46
38466;BME280;24244;51.950;5.902;2024-03-23T13:08:18;100693.81;;;10.71;68.92
38466;BME280;24244;51.950;5.902;2024-03-23T13:10:44;100687.66;;;10.70;69.18
38466;BME280;24244;51.950;5.902;2024-03-23T13:13:10;100687.50;;;10.72;68.40
38466;BME280;24244;51.950;5.902;2024-03-23T13:15:36;100692.88;;;10.78;68.69
38466;BME280;24244;51.950;5.902;2024-03-23T13:18:02;100693.38;;;10.88;68.68
38466;BME280;24244;51.950;5.902;2024-03-23T13:20:27;100702.03;;;10.97;68.81
38466;BME280;24244;51.950;5.902;2024-03-23T13:22:53;100687.09;;;10.96;68.19
38466;BME280;24244;51.950;5.902;2024-03-23T13:25:20;100693.81;;;10.92;68.66
38466;BME280;24244;51.950;5.902;2024-03-23T13:27:47;100691.72;;;10.87;68.98
38466;BME280;24244;51.950;5.902;2024-03-23T13:30:13;100692.53;;;10.88;69.59
38466;BME280;24244;51.950;5.902;2024-03-23T13:32:38;100685.44;;;10.95;70.52
38466;BME280;24244;51.950;5.902;2024-03-23T13:35:04;100696.31;;;10.93;70.04
38466;BME280;24244;51.950;5.902;2024-03-23T13:37:32;100705.47;;;10.91;70.28
38466;BME280;24244;51.950;5.902;2024-03-23T13:39:57;100693.31;;;10.82;69.09
38466;BME280;24244;51.950;5.902;2024-03-23T13:42:24;100697.13;;;10.73;68.74
38466;BME280;24244;51.950;5.902;2024-03-23T13:44:51;100699.50;;;10.68;69.29
38466;BME280;24244;51.950;5.902;2024-03-23T13:47:17;100692.91;;;10.64;69.47